createdAt,value
2022-12-27T00:02:10.157Z,3.79
2022-12-27T00:05:09.504Z,3.73
2022-12-27T00:07:56.492Z,3.61
2022-12-27T00:10:42.616Z,3.75
2022-12-27T00:13:34.337Z,3.73
2022-12-27T00:16:22.809Z,3.72
2022-12-27T00:19:09.740Z,3.49
2022-12-27T00:21:56.363Z,3.66
2022-12-27T00:24:42.509Z,3.58
2022-12-27T00:27:32.313Z,3.66
2022-12-27T00:30:18.976Z,3.61
2022-12-27T00:33:05.132Z,3.67
2022-12-27T00:35:51.513Z,3.67
2022-12-27T00:38:37.283Z,3.60
2022-12-27T00:41:23.378Z,3.61
2022-12-27T00:44:09.314Z,3.63
2022-12-27T00:47:09.140Z,3.58
2022-12-27T00:49:55.151Z,3.59
2022-12-27T00:52:40.905Z,3.62
2022-12-27T00:55:43.235Z,3.60
2022-12-27T00:58:29.417Z,3.57
2022-12-27T01:01:18.737Z,3.60
2022-12-27T01:04:08.518Z,3.61
2022-12-27T01:06:54.498Z,3.58
2022-12-27T01:09:43.564Z,3.56
2022-12-27T01:13:02.301Z,3.53
2022-12-27T01:15:48.075Z,3.53
2022-12-27T01:18:34.126Z,3.58
2022-12-27T01:21:25.204Z,3.57
2022-12-27T01:24:16.598Z,3.55
2022-12-27T01:27:02.477Z,3.57
2022-12-27T01:29:48.374Z,3.62
2022-12-27T01:32:34.509Z,3.61
2022-12-27T01:35:20.793Z,3.61
2022-12-27T01:38:07.410Z,3.57
2022-12-27T01:40:53.175Z,3.56
2022-12-27T01:43:39.173Z,3.59
2022-12-27T01:46:25.180Z,3.59
2022-12-27T01:49:11.836Z,3.52
2022-12-27T01:51:57.648Z,3.53
2022-12-27T01:54:43.515Z,3.50
2022-12-27T01:57:29.656Z,3.46
2022-12-27T02:00:16.008Z,3.48
2022-12-27T02:03:04.507Z,3.40
2022-12-27T02:05:51.696Z,3.39
2022-12-27T02:08:53.437Z,3.33
2022-12-27T02:11:52.353Z,3.28
2022-12-27T02:14:48.073Z,3.22
2022-12-27T02:17:34.462Z,3.25
2022-12-27T02:20:22.924Z,3.24
2022-12-27T02:23:40.652Z,3.23
2022-12-27T02:26:35.967Z,3.23
2022-12-27T02:29:54.274Z,3.21
2022-12-27T02:33:20.924Z,3.22
2022-12-27T02:36:10.778Z,3.20
2022-12-27T02:38:59.718Z,3.18
2022-12-27T02:42:13.006Z,3.15
2022-12-27T02:45:18.757Z,3.15
2022-12-27T02:48:24.540Z,2.96
2022-12-27T02:51:45.673Z,3.01
2022-12-27T02:54:43.749Z,3.11
2022-12-27T02:58:11.873Z,3.04
2022-12-27T03:01:34.608Z,3.00
2022-12-27T03:04:45.157Z,2.88
2022-12-27T03:07:56.825Z,2.79
2022-12-27T03:11:18.711Z,2.79
2022-12-27T03:14:33.621Z,2.82
2022-12-27T03:17:30.826Z,2.90
2022-12-27T03:20:36.831Z,2.93
2022-12-27T03:23:50.706Z,2.95
2022-12-27T03:26:39.922Z,2.98
2022-12-27T03:29:46.171Z,3.01
2022-12-27T03:33:08.431Z,2.96
2022-12-27T03:40:00.987Z,3.12
2022-12-27T03:43:12.098Z,3.11
2022-12-27T03:46:30.098Z,3.14
2022-12-27T03:49:34.254Z,3.10
2022-12-27T03:52:25.645Z,3.16
2022-12-27T03:55:12.722Z,3.12
2022-12-27T03:58:03.877Z,2.97
2022-12-27T04:00:50.514Z,3.16
2022-12-27T04:03:37.160Z,3.10
2022-12-27T04:06:25.191Z,2.92
2022-12-27T04:09:42.035Z,2.84
2022-12-27T04:13:02.818Z,2.80
2022-12-27T04:16:08.509Z,2.95
2022-12-27T04:19:12.776Z,2.93
2022-12-27T04:22:17.268Z,2.93
2022-12-27T04:25:22.969Z,2.92
2022-12-27T04:28:29.091Z,2.91
2022-12-27T04:31:36.257Z,2.86
2022-12-27T04:34:41.284Z,2.87
2022-12-27T04:37:35.837Z,2.81
2022-12-27T04:40:40.743Z,2.92
2022-12-27T04:43:45.593Z,2.92
2022-12-27T04:46:52.142Z,2.90
2022-12-27T04:49:56.856Z,2.90
2022-12-27T04:53:01.455Z,2.92
2022-12-27T04:55:47.583Z,2.91
2022-12-27T04:58:33.400Z,2.82
2022-12-27T05:01:38.180Z,2.91
2022-12-27T05:04:24.292Z,2.89
2022-12-27T05:07:35.916Z,2.87
2022-12-27T05:10:40.171Z,2.88
2022-12-27T05:13:44.795Z,2.87
2022-12-27T05:16:43.779Z,2.86
2022-12-27T05:19:29.662Z,2.84
2022-12-27T05:22:33.901Z,2.87
2022-12-27T05:25:35.081Z,2.86
2022-12-27T05:28:20.852Z,2.79
2022-12-27T05:31:06.580Z,2.74
2022-12-27T05:33:53.070Z,2.61
2022-12-27T05:36:38.895Z,2.55
2022-12-27T05:39:24.495Z,2.54
2022-12-27T05:42:10.381Z,2.53
2022-12-27T05:44:56.047Z,2.51
2022-12-27T05:47:41.788Z,2.52
2022-12-27T05:50:27.943Z,2.57
2022-12-27T05:53:28.672Z,2.63
2022-12-27T05:56:19.780Z,2.73
2022-12-27T05:59:08.147Z,2.76
2022-12-27T06:01:54.145Z,2.78
2022-12-27T06:04:39.946Z,2.75
2022-12-27T06:07:25.647Z,2.80
2022-12-27T06:10:11.516Z,2.82
2022-12-27T06:13:00.107Z,2.76
2022-12-27T06:15:46.060Z,2.77
2022-12-27T06:18:33.931Z,2.66
2022-12-27T06:21:21.735Z,2.62
2022-12-27T06:24:07.794Z,2.62
2022-12-27T06:26:53.805Z,2.58
2022-12-27T06:29:39.477Z,2.62
2022-12-27T06:32:25.267Z,2.67
2022-12-27T06:35:11.340Z,2.71
2022-12-27T06:37:57.359Z,2.75
2022-12-27T06:40:43.241Z,2.79
2022-12-27T06:43:29.119Z,2.81
2022-12-27T06:46:18.334Z,2.82
2022-12-27T06:49:04.810Z,2.87
2022-12-27T06:51:57.375Z,2.88
2022-12-27T06:54:45.722Z,2.92
2022-12-27T06:57:31.298Z,2.97
2022-12-27T07:00:17.696Z,3.00
2022-12-27T07:03:04.596Z,3.05
2022-12-27T07:05:50.503Z,3.08
2022-12-27T07:08:36.400Z,3.12
2022-12-27T07:11:23.152Z,3.18
2022-12-27T07:14:10.879Z,3.21
2022-12-27T07:16:56.801Z,3.24
2022-12-27T07:19:42.495Z,3.27
2022-12-27T07:22:28.166Z,3.30
2022-12-27T07:25:13.957Z,3.35
2022-12-27T07:27:59.633Z,3.35
2022-12-27T07:30:45.276Z,3.32
2022-12-27T07:33:30.861Z,3.35
2022-12-27T07:36:19.508Z,3.33
2022-12-27T07:39:05.942Z,3.37
2022-12-27T07:41:52.135Z,3.37
2022-12-27T07:44:38.144Z,3.35
2022-12-27T07:47:24.268Z,3.36
2022-12-27T07:50:10.320Z,3.38
2022-12-27T07:52:56.121Z,3.33
2022-12-27T07:55:43.623Z,3.41
2022-12-27T07:58:29.208Z,3.44
2022-12-27T08:01:16.251Z,3.51
2022-12-27T08:04:02.313Z,3.54
2022-12-27T08:06:48.338Z,3.55
2022-12-27T08:09:37.061Z,3.60
2022-12-27T08:12:24.053Z,3.64
2022-12-27T08:15:11.145Z,3.71
2022-12-27T08:17:56.989Z,3.75
2022-12-27T08:20:42.746Z,3.74
2022-12-27T08:23:29.171Z,3.75
2022-12-27T08:26:15.631Z,3.74
2022-12-27T08:29:02.141Z,3.69
2022-12-27T08:31:47.739Z,3.71
2022-12-27T08:34:33.518Z,3.70
2022-12-27T08:37:19.268Z,3.64
2022-12-27T08:40:05.271Z,3.71
2022-12-27T08:42:50.945Z,3.67
2022-12-27T08:45:37.786Z,3.63
2022-12-27T08:48:23.623Z,3.72
2022-12-27T08:51:13.108Z,3.70
2022-12-27T08:54:00.429Z,3.78
2022-12-27T08:56:45.993Z,3.81
2022-12-27T08:59:31.602Z,3.89
2022-12-27T09:02:17.301Z,3.89
2022-12-27T09:05:02.957Z,4.02
2022-12-27T09:07:49.548Z,4.04
2022-12-27T09:10:35.291Z,4.05
2022-12-27T09:13:22.194Z,4.12
2022-12-27T09:16:13.783Z,4.19
2022-12-27T09:19:00.129Z,4.30
2022-12-27T09:21:45.807Z,4.43
2022-12-27T09:24:31.490Z,4.52
2022-12-27T09:27:17.152Z,4.62
2022-12-27T09:30:07.664Z,4.71
2022-12-27T09:32:53.331Z,4.80
2022-12-27T09:35:39.737Z,4.83
2022-12-27T09:38:25.667Z,4.88
2022-12-27T09:45:16.594Z,5.01
2022-12-27T09:48:06.068Z,5.15
2022-12-27T09:50:56.017Z,5.23
2022-12-27T09:54:03.599Z,5.31
2022-12-27T09:57:21.055Z,5.39
2022-12-27T10:00:05.550Z,5.54
2022-12-27T10:02:52.505Z,5.72
2022-12-27T10:05:39.603Z,5.91
2022-12-27T10:08:46.056Z,6.10
2022-12-27T10:12:12.745Z,6.32
2022-12-27T10:15:07.939Z,6.58
2022-12-27T10:18:15.177Z,6.85
2022-12-27T10:21:16.113Z,7.14
2022-12-27T10:24:20.633Z,7.38
2022-12-27T10:27:19.662Z,7.62
2022-12-27T10:30:20.297Z,7.89
2022-12-27T10:33:30.395Z,8.27
2022-12-27T10:36:23.198Z,8.59
2022-12-27T10:39:18.501Z,8.90
2022-12-27T10:42:28.689Z,9.21
2022-12-27T10:45:39.837Z,9.61
2022-12-27T10:49:20.491Z,9.91
2022-12-27T10:52:17.939Z,10.15
2022-12-27T10:55:31.409Z,10.40
2022-12-27T10:58:48.431Z,10.64
2022-12-27T11:01:37.977Z,10.85
2022-12-27T11:04:24.660Z,11.08
2022-12-27T11:07:17.556Z,11.27
2022-12-27T11:10:20.080Z,11.49
2022-12-27T11:13:07.503Z,11.67
2022-12-27T11:15:58.726Z,11.90
2022-12-27T11:18:50.486Z,12.10
2022-12-27T11:21:38.757Z,12.32
2022-12-27T11:24:24.557Z,12.56
2022-12-27T11:28:00.217Z,12.75
2022-12-27T11:31:09.741Z,13.07
2022-12-27T11:34:01.987Z,13.35
2022-12-27T11:36:50.667Z,13.64
2022-12-27T11:39:46.640Z,13.93
2022-12-27T11:42:46.688Z,14.23
2022-12-27T11:45:41.214Z,14.40
2022-12-27T11:48:38.547Z,14.57
2022-12-27T11:51:27.647Z,14.59
2022-12-27T11:54:38.399Z,14.57
2022-12-27T11:58:00.512Z,14.55
2022-12-27T12:01:13.660Z,14.60
2022-12-27T12:04:30.336Z,14.76
2022-12-27T12:07:39.388Z,15.01
2022-12-27T12:10:28.373Z,15.28
2022-12-27T12:13:51.731Z,15.54
2022-12-27T12:17:02.835Z,15.90
2022-12-27T12:20:01.183Z,16.33
2022-12-27T12:23:02.565Z,16.73
2022-12-27T12:25:57.261Z,17.09
2022-12-27T12:29:01.932Z,17.42
2022-12-27T12:32:06.455Z,17.53
2022-12-27T12:35:37.750Z,17.38
2022-12-27T12:38:35.830Z,17.12
2022-12-27T12:41:31.629Z,16.82
2022-12-27T12:44:23.600Z,16.56
2022-12-27T12:47:31.110Z,16.32
2022-12-27T12:50:32.617Z,16.03
2022-12-27T12:53:43.883Z,15.85
2022-12-27T12:56:52.517Z,15.61
2022-12-27T13:00:09.326Z,15.38
2022-12-27T13:03:25.883Z,15.15
2022-12-27T13:06:39.297Z,14.91
2022-12-27T13:09:45.150Z,14.74
2022-12-27T13:12:39.613Z,14.57
2022-12-27T13:15:46.937Z,14.45
2022-12-27T13:19:09.834Z,14.28
2022-12-27T13:22:05.598Z,14.14
2022-12-27T13:25:03.924Z,14.10
2022-12-27T13:27:52.007Z,14.11
2022-12-27T13:30:47.078Z,14.06
2022-12-27T13:34:03.718Z,13.99
2022-12-27T13:37:10.627Z,13.91
2022-12-27T13:40:24.012Z,13.83
2022-12-27T13:43:52.439Z,13.73
2022-12-27T13:47:21.180Z,13.65
2022-12-27T13:50:41.964Z,13.56
2022-12-27T13:53:57.872Z,13.47
2022-12-27T13:57:17.308Z,13.43
2022-12-27T14:00:20.108Z,13.35
2022-12-27T14:03:45.240Z,13.28
2022-12-27T14:06:50.966Z,13.18
2022-12-27T14:10:10.130Z,13.06
2022-12-27T14:13:03.735Z,13.01
2022-12-27T14:15:55.660Z,12.93
2022-12-27T14:19:19.399Z,12.82
2022-12-27T14:22:14.480Z,12.79
2022-12-27T14:25:31.015Z,12.73
2022-12-27T14:28:37.793Z,12.68
2022-12-27T14:31:32.749Z,12.61
2022-12-27T14:34:33.486Z,12.53
2022-12-27T14:38:13.037Z,12.45
2022-12-27T14:41:29.473Z,12.36
2022-12-27T14:44:54.147Z,12.29
2022-12-27T14:47:45.664Z,12.24
2022-12-27T14:50:44.979Z,12.18
2022-12-27T14:53:36.859Z,12.13
2022-12-27T14:56:30.871Z,12.06
2022-12-27T14:59:27.720Z,12.05
2022-12-27T15:02:49.692Z,12.00
2022-12-27T15:06:17.529Z,11.93
2022-12-27T15:09:07.681Z,11.86
2022-12-27T15:12:16.002Z,11.83
2022-12-27T15:15:11.260Z,11.78
2022-12-27T15:18:00.956Z,11.72
2022-12-27T15:20:53.230Z,11.66
2022-12-27T15:23:58.104Z,11.55
2022-12-27T15:26:52.331Z,11.55
2022-12-27T15:29:40.720Z,11.49
2022-12-27T15:32:36.068Z,11.46
2022-12-27T15:35:29.538Z,11.43
2022-12-27T15:38:34.186Z,11.37
2022-12-27T15:41:35.852Z,11.35
2022-12-27T15:44:50.368Z,11.30
2022-12-27T15:47:55.889Z,11.26
2022-12-27T15:50:59.143Z,11.28
2022-12-27T15:54:13.893Z,11.23
2022-12-27T15:57:27.756Z,11.24
2022-12-27T16:00:18.397Z,11.23
2022-12-27T16:03:37.687Z,11.20
2022-12-27T16:06:36.434Z,11.20
2022-12-27T16:09:38.711Z,11.17
2022-12-27T16:12:39.881Z,11.18
2022-12-27T16:15:35.723Z,11.17
2022-12-27T16:18:24.510Z,11.17
2022-12-27T16:21:18.479Z,11.15
2022-12-27T16:24:10.289Z,11.12
2022-12-27T16:27:05.657Z,11.06
2022-12-27T16:29:51.412Z,11.07
2022-12-27T16:32:37.197Z,11.04
2022-12-27T16:35:23.125Z,11.00
2022-12-27T16:38:21.250Z,11.00
2022-12-27T16:41:27.380Z,10.97
2022-12-27T16:44:38.910Z,10.94
2022-12-27T16:47:27.497Z,10.93
2022-12-27T16:50:46.541Z,10.91
2022-12-27T16:53:54.364Z,10.91
2022-12-27T16:56:44.896Z,10.88
2022-12-27T17:00:04.039Z,10.88
2022-12-27T17:02:49.963Z,10.89
2022-12-27T17:05:36.996Z,10.88
2022-12-27T17:08:25.942Z,10.86
2022-12-27T17:11:29.721Z,10.83
2022-12-27T17:14:22.628Z,10.77
2022-12-27T17:17:18.115Z,10.76
2022-12-27T17:20:06.563Z,10.75
2022-12-27T17:22:54.511Z,10.72
2022-12-27T17:25:50.872Z,10.67
2022-12-27T17:28:45.416Z,10.65
2022-12-27T17:32:09.137Z,10.60
2022-12-27T17:35:13.079Z,10.54
2022-12-27T17:38:08.165Z,10.49
2022-12-27T17:41:03.582Z,10.46
2022-12-27T17:44:25.694Z,10.39
2022-12-27T17:47:48.984Z,10.37
2022-12-27T17:50:35.677Z,10.36
2022-12-27T17:53:43.338Z,10.31
2022-12-27T17:56:48.078Z,10.33
2022-12-27T17:59:35.043Z,10.30
2022-12-27T18:02:31.636Z,10.31
2022-12-27T18:05:18.018Z,10.28
2022-12-27T18:08:28.260Z,10.20
2022-12-27T18:11:15.661Z,10.20
2022-12-27T18:14:01.699Z,10.21
2022-12-27T18:16:51.131Z,10.18
2022-12-27T18:19:37.237Z,10.14
2022-12-27T18:22:23.028Z,10.16
2022-12-27T18:25:28.051Z,10.14
2022-12-27T18:28:33.079Z,10.13
2022-12-27T18:31:27.001Z,10.12
2022-12-27T18:34:40.651Z,10.09
2022-12-27T18:37:26.485Z,10.08
2022-12-27T18:40:34.846Z,10.07
2022-12-27T18:43:20.831Z,10.08
2022-12-27T18:46:06.826Z,10.06
2022-12-27T18:48:53.256Z,10.04
2022-12-27T19:35:46.897Z,9.25
2022-12-27T19:38:33.618Z,9.21
2022-12-27T19:41:20.096Z,9.25
2022-12-27T19:44:06.211Z,9.24
2022-12-27T19:46:52.151Z,9.22
2022-12-27T19:49:43.061Z,9.18
2022-12-27T19:52:29.461Z,9.15
2022-12-27T19:55:18.042Z,9.14
2022-12-27T19:58:03.732Z,9.14
2022-12-27T20:00:49.665Z,9.15
2022-12-27T20:03:35.806Z,9.15
2022-12-27T20:06:26.701Z,9.12
2022-12-27T20:09:19.238Z,9.10
2022-12-27T20:12:05.711Z,9.08
2022-12-27T20:14:51.661Z,9.06
2022-12-27T20:17:44.469Z,9.05
2022-12-27T20:20:32.826Z,9.03
2022-12-27T20:23:19.245Z,9.05
2022-12-27T21:40:56.689Z,8.12
2022-12-27T21:43:45.517Z,8.21
2022-12-27T21:46:36.805Z,8.28
2022-12-27T21:49:22.430Z,8.28
2022-12-27T21:52:08.393Z,8.39
2022-12-27T21:54:54.722Z,8.42
2022-12-27T21:57:40.669Z,8.40
2022-12-27T22:00:26.448Z,8.46
2022-12-27T22:03:12.183Z,8.46
2022-12-27T22:05:58.245Z,8.49
2022-12-27T22:08:46.381Z,8.49
2022-12-27T22:11:33.086Z,8.52
2022-12-27T22:14:23.465Z,8.50
2022-12-27T22:17:12.050Z,8.54
2022-12-27T22:19:57.838Z,8.56
2022-12-27T22:22:43.809Z,8.56
2022-12-27T22:25:29.717Z,8.59
2022-12-27T22:28:15.436Z,8.60
2022-12-27T22:31:30.587Z,8.58
2022-12-27T22:34:16.529Z,8.63
2022-12-27T22:37:02.128Z,8.62
2022-12-27T22:39:49.205Z,8.53
2022-12-27T22:42:34.922Z,8.59
2022-12-27T22:45:20.549Z,8.58
2022-12-27T22:48:07.277Z,8.55
2022-12-27T22:50:52.911Z,8.52
2022-12-27T22:53:38.828Z,8.50
2022-12-27T22:56:29.981Z,8.50
2022-12-27T22:59:18.683Z,8.48
2022-12-27T23:02:04.852Z,8.44
2022-12-27T23:04:50.825Z,8.46
2022-12-27T23:08:04.347Z,8.47
2022-12-27T23:10:42.471Z,8.45
2022-12-27T23:13:27.984Z,8.39
2022-12-27T23:16:13.762Z,8.43
2022-12-27T23:18:59.501Z,8.47
2022-12-27T23:21:45.521Z,8.45
2022-12-27T23:24:31.360Z,8.43
2022-12-27T23:27:17.247Z,8.45
2022-12-27T23:30:03.183Z,8.43
2022-12-27T23:32:49.163Z,8.43
2022-12-27T23:35:35.185Z,8.45
2022-12-27T23:38:20.986Z,8.47
2022-12-27T23:41:07.613Z,8.40
2022-12-27T23:43:55.850Z,8.48
2022-12-27T23:46:42.303Z,8.49
2022-12-27T23:49:28.177Z,8.50
2022-12-27T23:52:14.251Z,8.50
2022-12-27T23:55:00.022Z,8.49
2022-12-27T23:57:45.552Z,8.45
